sensor_id;sensor_type;location;lat;lon;timestamp;pressure;altitude;pressure_sealevel;temperature;humidity
76108;BME280;64834;52.516;10.528;2022-12-20T00:02:20;101055.75;;;3.94;88.82
76108;BME280;64834;52.516;10.528;2022-12-20T00:04:46;101056.78;;;3.96;88.39
76108;BME280;64834;52.516;10.528;2022-12-20T00:07:11;101052.06;;;4.11;88.79
76108;BME280;64834;52.516;10.528;2022-12-20T00:09:36;101046.88;;;4.11;88.61
76108;BME280;64834;52.516;10.528;2022-12-20T00:12:02;101042.09;;;4.15;88.55
76108;BME280;64834;52.516;10.528;2022-12-20T00:14:27;101041.06;;;4.23;88.34
76108;BME280;64834;52.516;10.528;2022-12-20T00:16:52;101035.53;;;4.29;87.93
76108;BME280;64834;52.516;10.528;2022-12-20T00:19:18;101036.16;;;4.37;88.13
76108;BME280;64834;52.516;10.528;2022-12-20T00:21:43;101029.06;;;4.34;87.93
76108;BME280;64834;52.516;10.528;2022-12-20T00:24:09;101027.22;;;4.43;88.17
76108;BME280;64834;52.516;10.528;2022-12-20T00:26:35;101026.97;;;4.50;87.97
76108;BME280;64834;52.516;10.528;2022-12-20T00:29:01;101038.22;;;4.30;88.27
76108;BME280;64834;52.516;10.528;2022-12-20T00:31:28;101037.34;;;4.40;87.84
76108;BME280;64834;52.516;10.528;2022-12-20T00:33:55;101036.16;;;4.37;88.57
76108;BME280;64834;52.516;10.528;2022-12-20T00:36:22;101038.25;;;4.51;88.05
76108;BME280;64834;52.516;10.528;2022-12-20T00:38:49;101036.28;;;4.58;87.94
76108;BME280;64834;52.516;10.528;2022-12-20T00:41:17;101037.22;;;4.59;87.73
76108;BME280;64834;52.516;10.528;2022-12-20T00:43:43;101032.78;;;4.58;88.08
76108;BME280;64834;52.516;10.528;2022-12-20T00:46:10;101035.91;;;4.64;87.67
76108;BME280;64834;52.516;10.528;2022-12-20T00:48:36;101035.66;;;4.61;88.00
76108;BME280;64834;52.516;10.528;2022-12-20T00:51:04;101039.56;;;4.66;88.08
76108;BME280;64834;52.516;10.528;2022-12-20T00:53:31;101040.56;;;4.68;87.64
76108;BME280;64834;52.516;10.528;2022-12-20T00:55:56;101037.34;;;4.60;88.10
76108;BME280;64834;52.516;10.528;2022-12-20T00:58:22;101025.81;;;4.67;88.04
76108;BME280;64834;52.516;10.528;2022-12-20T01:00:47;101039.53;;;4.76;87.94
76108;BME280;64834;52.516;10.528;2022-12-20T01:03:13;101041.72;;;4.82;87.88
76108;BME280;64834;52.516;10.528;2022-12-20T01:05:39;101039.25;;;4.83;88.05
76108;BME280;64834;52.516;10.528;2022-12-20T01:08:05;101028.25;;;4.86;87.61
76108;BME280;64834;52.516;10.528;2022-12-20T01:10:30;101033.44;;;4.86;87.83
76108;BME280;64834;52.516;10.528;2022-12-20T01:12:56;101025.38;;;4.93;86.98
76108;BME280;64834;52.516;10.528;2022-12-20T01:15:21;101031.59;;;5.05;87.34
76108;BME280;64834;52.516;10.528;2022-12-20T01:17:47;101033.00;;;5.02;87.06
76108;BME280;64834;52.516;10.528;2022-12-20T01:20:13;101037.78;;;5.07;87.16
76108;BME280;64834;52.516;10.528;2022-12-20T01:22:38;101036.63;;;5.14;87.39
76108;BME280;64834;52.516;10.528;2022-12-20T01:25:04;101024.44;;;5.13;86.73
76108;BME280;64834;52.516;10.528;2022-12-20T01:27:30;101014.44;;;5.18;86.77
76108;BME280;64834;52.516;10.528;2022-12-20T01:29:55;101025.81;;;5.30;86.38
76108;BME280;64834;52.516;10.528;2022-12-20T01:32:21;101024.81;;;5.18;86.64
76108;BME280;64834;52.516;10.528;2022-12-20T01:34:46;101028.72;;;5.12;87.17
76108;BME280;64834;52.516;10.528;2022-12-20T01:37:12;101021.59;;;5.10;86.99
76108;BME280;64834;52.516;10.528;2022-12-20T01:39:37;101030.28;;;5.00;87.59
76108;BME280;64834;52.516;10.528;2022-12-20T01:42:03;101030.41;;;5.02;87.71
76108;BME280;64834;52.516;10.528;2022-12-20T01:46:54;101019.53;;;4.96;87.65
76108;BME280;64834;52.516;10.528;2022-12-20T01:49:30;101015.50;;;5.09;87.61
76108;BME280;64834;52.516;10.528;2022-12-20T01:52:02;101004.34;;;5.00;87.62
76108;BME280;64834;52.516;10.528;2022-12-20T01:54:32;101008.75;;;5.01;87.56
76108;BME280;64834;52.516;10.528;2022-12-20T01:57:02;100998.94;;;4.97;87.73
76108;BME280;64834;52.516;10.528;2022-12-20T01:59:31;100998.66;;;4.94;87.85
76108;BME280;64834;52.516;10.528;2022-12-20T02:02:02;101004.00;;;4.85;87.92
76108;BME280;64834;52.516;10.528;2022-12-20T02:04:28;100998.19;;;4.78;88.20
76108;BME280;64834;52.516;10.528;2022-12-20T02:06:54;101003.63;;;4.81;88.24
76108;BME280;64834;52.516;10.528;2022-12-20T02:09:19;101001.56;;;4.67;88.78
76108;BME280;64834;52.516;10.528;2022-12-20T02:11:55;100996.34;;;4.77;88.26
76108;BME280;64834;52.516;10.528;2022-12-20T02:17:49;100982.13;;;4.72;88.77
76108;BME280;64834;52.516;10.528;2022-12-20T02:26:30;100980.13;;;4.90;88.49
76108;BME280;64834;52.516;10.528;2022-12-20T02:29:33;100982.66;;;4.78;88.92
76108;BME280;64834;52.516;10.528;2022-12-20T02:32:04;100976.44;;;4.66;89.26
76108;BME280;64834;52.516;10.528;2022-12-20T02:34:35;100971.88;;;4.73;89.51
76108;BME280;64834;52.516;10.528;2022-12-20T02:37:01;100973.53;;;4.83;89.76
76108;BME280;64834;52.516;10.528;2022-12-20T02:39:28;100971.22;;;4.86;89.31
76108;BME280;64834;52.516;10.528;2022-12-20T02:42:11;100964.06;;;4.83;88.93
76108;BME280;64834;52.516;10.528;2022-12-20T02:44:44;100973.41;;;4.71;89.50
76108;BME280;64834;52.516;10.528;2022-12-20T02:47:36;100996.06;;;4.94;89.08
76108;BME280;64834;52.516;10.528;2022-12-20T02:50:05;100981.41;;;4.95;88.92
76108;BME280;64834;52.516;10.528;2022-12-20T02:52:32;100980.50;;;4.94;88.81
76108;BME280;64834;52.516;10.528;2022-12-20T02:54:58;100980.00;;;4.88;89.78
76108;BME280;64834;52.516;10.528;2022-12-20T02:57:28;100973.28;;;4.80;89.94
76108;BME280;64834;52.516;10.528;2022-12-20T03:00:03;100978.72;;;4.83;89.73
76108;BME280;64834;52.516;10.528;2022-12-20T03:02:30;100972.72;;;5.04;89.46
76108;BME280;64834;52.516;10.528;2022-12-20T03:05:16;100965.97;;;5.06;89.34
76108;BME280;64834;52.516;10.528;2022-12-20T03:07:43;100968.16;;;5.12;89.36
76108;BME280;64834;52.516;10.528;2022-12-20T03:10:09;100969.16;;;5.14;89.05
76108;BME280;64834;52.516;10.528;2022-12-20T03:12:34;100953.50;;;5.02;89.48
76108;BME280;64834;52.516;10.528;2022-12-20T03:15:00;100959.09;;;5.07;89.75
76108;BME280;64834;52.516;10.528;2022-12-20T03:17:25;100953.78;;;4.95;89.88
76108;BME280;64834;52.516;10.528;2022-12-20T03:19:50;100943.59;;;5.19;89.57
76108;BME280;64834;52.516;10.528;2022-12-20T03:22:16;100948.69;;;5.17;89.26
76108;BME280;64834;52.516;10.528;2022-12-20T03:24:41;100939.44;;;5.21;89.07
76108;BME280;64834;52.516;10.528;2022-12-20T03:27:06;100946.22;;;5.19;89.52
76108;BME280;64834;52.516;10.528;2022-12-20T03:29:33;100952.38;;;5.31;89.03
76108;BME280;64834;52.516;10.528;2022-12-20T03:31:58;100946.91;;;5.38;88.56
76108;BME280;64834;52.516;10.528;2022-12-20T03:34:23;100945.28;;;5.50;89.06
76108;BME280;64834;52.516;10.528;2022-12-20T03:36:49;100942.72;;;5.40;88.99
76108;BME280;64834;52.516;10.528;2022-12-20T03:39:14;100936.22;;;5.45;89.33
76108;BME280;64834;52.516;10.528;2022-12-20T03:41:39;100944.97;;;5.35;89.36
76108;BME280;64834;52.516;10.528;2022-12-20T03:44:05;100943.09;;;5.45;89.48
76108;BME280;64834;52.516;10.528;2022-12-20T03:46:30;100945.88;;;5.58;88.83
76108;BME280;64834;52.516;10.528;2022-12-20T03:48:55;100943.13;;;5.66;89.01
76108;BME280;64834;52.516;10.528;2022-12-20T03:51:20;100949.81;;;5.75;88.32
76108;BME280;64834;52.516;10.528;2022-12-20T03:53:46;100939.91;;;5.81;88.43
76108;BME280;64834;52.516;10.528;2022-12-20T03:56:11;100938.63;;;5.76;88.19
76108;BME280;64834;52.516;10.528;2022-12-20T03:58:36;100939.66;;;5.78;88.38
76108;BME280;64834;52.516;10.528;2022-12-20T04:01:15;100941.59;;;5.80;88.75
76108;BME280;64834;52.516;10.528;2022-12-20T04:03:41;100934.22;;;5.75;89.11
76108;BME280;64834;52.516;10.528;2022-12-20T04:06:06;100936.31;;;5.79;88.68
76108;BME280;64834;52.516;10.528;2022-12-20T04:08:31;100934.69;;;5.91;88.46
76108;BME280;64834;52.516;10.528;2022-12-20T04:10:57;100943.28;;;5.80;88.62
76108;BME280;64834;52.516;10.528;2022-12-20T04:13:41;100939.91;;;5.81;88.94
76108;BME280;64834;52.516;10.528;2022-12-20T04:16:07;100934.78;;;5.71;89.19
76108;BME280;64834;52.516;10.528;2022-12-20T04:18:32;100937.44;;;5.82;88.89
76108;BME280;64834;52.516;10.528;2022-12-20T04:20:59;100938.94;;;5.68;89.45
76108;BME280;64834;52.516;10.528;2022-12-20T04:23:24;100925.47;;;5.62;89.77
76108;BME280;64834;52.516;10.528;2022-12-20T04:25:50;100920.72;;;6.01;88.56
76108;BME280;64834;52.516;10.528;2022-12-20T04:28:15;100926.91;;;6.03;88.20
76108;BME280;64834;52.516;10.528;2022-12-20T04:30:40;100922.97;;;6.08;87.84
76108;BME280;64834;52.516;10.528;2022-12-20T04:33:06;100921.13;;;5.95;88.25
76108;BME280;64834;52.516;10.528;2022-12-20T04:35:31;100937.91;;;6.10;88.19
76108;BME280;64834;52.516;10.528;2022-12-20T04:37:57;100942.47;;;6.25;87.85
76108;BME280;64834;52.516;10.528;2022-12-20T04:40:22;100938.06;;;6.24;87.84
76108;BME280;64834;52.516;10.528;2022-12-20T04:42:47;100932.41;;;6.17;88.07
76108;BME280;64834;52.516;10.528;2022-12-20T04:45:13;100929.91;;;6.19;87.99
76108;BME280;64834;52.516;10.528;2022-12-20T04:47:38;100935.47;;;6.24;87.83
76108;BME280;64834;52.516;10.528;2022-12-20T04:50:05;100941.47;;;6.22;87.79
76108;BME280;64834;52.516;10.528;2022-12-20T04:52:31;100941.47;;;6.22;87.95
76108;BME280;64834;52.516;10.528;2022-12-20T04:55:15;100956.94;;;6.33;87.50
76108;BME280;64834;52.516;10.528;2022-12-20T04:57:41;100955.09;;;6.65;86.22
76108;BME280;64834;52.516;10.528;2022-12-20T05:00:07;100949.56;;;6.61;86.00
76108;BME280;64834;52.516;10.528;2022-12-20T05:02:32;100941.44;;;6.68;85.91
76108;BME280;64834;52.516;10.528;2022-12-20T05:04:57;100931.94;;;6.68;85.78
76108;BME280;64834;52.516;10.528;2022-12-20T05:07:23;100942.44;;;6.82;85.34
76108;BME280;64834;52.516;10.528;2022-12-20T05:09:48;100937.25;;;6.82;85.25
76108;BME280;64834;52.516;10.528;2022-12-20T05:12:13;100944.50;;;6.86;84.94
76108;BME280;64834;52.516;10.528;2022-12-20T05:14:39;100950.72;;;6.88;85.21
76108;BME280;64834;52.516;10.528;2022-12-20T05:17:04;100948.22;;;6.89;85.07
76108;BME280;64834;52.516;10.528;2022-12-20T05:19:29;100940.53;;;6.79;85.33
76108;BME280;64834;52.516;10.528;2022-12-20T05:21:54;100944.16;;;6.81;85.42
76108;BME280;64834;52.516;10.528;2022-12-20T05:24:38;100949.78;;;6.75;85.64
76108;BME280;64834;52.516;10.528;2022-12-20T05:27:22;100948.53;;;6.59;86.00
76108;BME280;64834;52.516;10.528;2022-12-20T05:29:47;100956.22;;;6.57;86.18
76108;BME280;64834;52.516;10.528;2022-12-20T05:32:13;100951.25;;;6.72;86.01
76108;BME280;64834;52.516;10.528;2022-12-20T05:34:38;100945.59;;;6.66;86.43
76108;BME280;64834;52.516;10.528;2022-12-20T05:37:04;100944.81;;;6.67;86.22
76108;BME280;64834;52.516;10.528;2022-12-20T05:39:29;100944.91;;;6.57;86.83
76108;BME280;64834;52.516;10.528;2022-12-20T05:41:55;100946.06;;;6.60;87.08
76108;BME280;64834;52.516;10.528;2022-12-20T05:44:20;100945.72;;;6.67;87.22
76108;BME280;64834;52.516;10.528;2022-12-20T05:46:46;100939.38;;;6.64;87.46
76108;BME280;64834;52.516;10.528;2022-12-20T05:49:11;100945.47;;;6.64;87.95
76108;BME280;64834;52.516;10.528;2022-12-20T05:51:37;100942.44;;;6.82;87.29
76108;BME280;64834;52.516;10.528;2022-12-20T05:54:02;100945.94;;;6.70;88.11
76108;BME280;64834;52.516;10.528;2022-12-20T05:56:27;100939.16;;;6.72;88.35
76108;BME280;64834;52.516;10.528;2022-12-20T05:58:53;100930.47;;;6.60;88.81
76108;BME280;64834;52.516;10.528;2022-12-20T06:01:18;100936.56;;;6.61;89.23
76108;BME280;64834;52.516;10.528;2022-12-20T06:03:44;100939.94;;;6.48;89.69
76108;BME280;64834;52.516;10.528;2022-12-20T06:06:10;100926.03;;;6.47;89.69
76108;BME280;64834;52.516;10.528;2022-12-20T06:08:35;100927.69;;;6.47;89.74
76108;BME280;64834;52.516;10.528;2022-12-20T06:11:00;100930.19;;;6.45;90.47
76108;BME280;64834;52.516;10.528;2022-12-20T06:13:29;100932.69;;;6.44;90.12
76108;BME280;64834;52.516;10.528;2022-12-20T06:15:54;100932.56;;;6.42;90.29
76108;BME280;64834;52.516;10.528;2022-12-20T06:18:19;100934.38;;;6.43;90.35
76108;BME280;64834;52.516;10.528;2022-12-20T06:20:49;100937.56;;;6.51;90.39
76108;BME280;64834;52.516;10.528;2022-12-20T06:23:15;100946.69;;;6.46;90.62
76108;BME280;64834;52.516;10.528;2022-12-20T06:25:40;100939.59;;;6.43;90.69
76108;BME280;64834;52.516;10.528;2022-12-20T06:28:06;100940.69;;;6.47;90.44
76108;BME280;64834;52.516;10.528;2022-12-20T06:30:32;100942.97;;;6.42;90.70
76108;BME280;64834;52.516;10.528;2022-12-20T06:32:58;100938.22;;;6.37;90.75
76108;BME280;64834;52.516;10.528;2022-12-20T06:35:23;100937.84;;;6.32;91.14
76108;BME280;64834;52.516;10.528;2022-12-20T06:37:48;100930.06;;;6.32;91.22
76108;BME280;64834;52.516;10.528;2022-12-20T06:40:14;100930.31;;;6.35;91.39
76108;BME280;64834;52.516;10.528;2022-12-20T06:42:39;100932.91;;;6.35;91.17
76108;BME280;64834;52.516;10.528;2022-12-20T06:45:05;100926.34;;;6.29;91.45
76108;BME280;64834;52.516;10.528;2022-12-20T06:47:31;100927.44;;;6.20;91.72
76108;BME280;64834;52.516;10.528;2022-12-20T06:49:56;100934.22;;;6.18;91.95
76108;BME280;64834;52.516;10.528;2022-12-20T06:52:22;100926.88;;;6.25;91.60
76108;BME280;64834;52.516;10.528;2022-12-20T06:54:48;100920.09;;;6.27;91.70
76108;BME280;64834;52.516;10.528;2022-12-20T06:57:13;100917.16;;;6.34;91.10
76108;BME280;64834;52.516;10.528;2022-12-20T06:59:39;100912.66;;;6.31;91.03
76108;BME280;64834;52.516;10.528;2022-12-20T07:02:04;100922.63;;;6.37;90.92
76108;BME280;64834;52.516;10.528;2022-12-20T07:04:29;100927.13;;;6.39;90.79
76108;BME280;64834;52.516;10.528;2022-12-20T07:06:55;100929.16;;;6.32;90.85
76108;BME280;64834;52.516;10.528;2022-12-20T07:09:21;100924.78;;;6.42;90.90
76108;BME280;64834;52.516;10.528;2022-12-20T07:11:47;100922.75;;;6.50;90.30
76108;BME280;64834;52.516;10.528;2022-12-20T07:14:12;100923.53;;;6.49;90.20
76108;BME280;64834;52.516;10.528;2022-12-20T07:16:37;100924.34;;;6.48;90.23
76108;BME280;64834;52.516;10.528;2022-12-20T07:19:05;100928.03;;;6.40;90.50
76108;BME280;64834;52.516;10.528;2022-12-20T07:21:31;100929.84;;;6.41;90.36
76108;BME280;64834;52.516;10.528;2022-12-20T07:23:56;100919.13;;;6.36;90.83
76108;BME280;64834;52.516;10.528;2022-12-20T07:26:21;100916.19;;;6.43;90.07
76108;BME280;64834;52.516;10.528;2022-12-20T07:28:47;100919.13;;;6.48;90.04
76108;BME280;64834;52.516;10.528;2022-12-20T07:31:12;100918.00;;;6.44;90.19
76108;BME280;64834;52.516;10.528;2022-12-20T07:33:38;100921.63;;;6.58;89.90
76108;BME280;64834;52.516;10.528;2022-12-20T07:36:06;100912.00;;;6.57;90.14
76108;BME280;64834;52.516;10.528;2022-12-20T07:38:33;100920.38;;;6.65;89.56
76108;BME280;64834;52.516;10.528;2022-12-20T07:40:59;100918.00;;;6.56;89.55
76108;BME280;64834;52.516;10.528;2022-12-20T07:43:25;100918.81;;;6.55;89.84
76108;BME280;64834;52.516;10.528;2022-12-20T07:45:54;100909.19;;;6.54;89.58
76108;BME280;64834;52.516;10.528;2022-12-20T07:48:22;100910.41;;;6.59;89.99
76108;BME280;64834;52.516;10.528;2022-12-20T07:50:50;100910.31;;;6.58;89.89
76108;BME280;64834;52.516;10.528;2022-12-20T07:53:15;100905.56;;;6.52;89.91
76108;BME280;64834;52.516;10.528;2022-12-20T07:55:42;100909.66;;;6.48;90.04
76108;BME280;64834;52.516;10.528;2022-12-20T07:58:08;100919.34;;;6.39;90.63
76108;BME280;64834;52.516;10.528;2022-12-20T08:00:36;100923.22;;;6.56;90.12
76108;BME280;64834;52.516;10.528;2022-12-20T08:03:07;100920.97;;;6.61;90.62
76108;BME280;64834;52.516;10.528;2022-12-20T08:05:36;100911.47;;;6.61;90.42
76108;BME280;64834;52.516;10.528;2022-12-20T08:08:03;100908.88;;;6.61;90.84
76108;BME280;64834;52.516;10.528;2022-12-20T08:10:28;100910.22;;;6.56;90.63
76108;BME280;64834;52.516;10.528;2022-12-20T08:12:54;100906.72;;;6.56;90.93
76108;BME280;64834;52.516;10.528;2022-12-20T08:15:20;100917.22;;;6.57;91.01
76108;BME280;64834;52.516;10.528;2022-12-20T08:17:47;100901.63;;;6.57;91.23
76108;BME280;64834;52.516;10.528;2022-12-20T08:20:13;100913.81;;;6.58;91.24
76108;BME280;64834;52.516;10.528;2022-12-20T08:22:39;100917.47;;;6.60;91.48
76108;BME280;64834;52.516;10.528;2022-12-20T08:25:04;100906.94;;;6.70;91.10
76108;BME280;64834;52.516;10.528;2022-12-20T08:27:30;100910.31;;;6.69;90.75
76108;BME280;64834;52.516;10.528;2022-12-20T08:29:55;100913.47;;;6.65;91.33
76108;BME280;64834;52.516;10.528;2022-12-20T08:32:20;100909.66;;;6.60;91.35
76108;BME280;64834;52.516;10.528;2022-12-20T08:34:46;100919.00;;;6.58;91.67
76108;BME280;64834;52.516;10.528;2022-12-20T08:37:15;100903.22;;;6.67;91.48
76108;BME280;64834;52.516;10.528;2022-12-20T08:39:40;100907.50;;;6.78;91.07
76108;BME280;64834;52.516;10.528;2022-12-20T08:42:06;100900.72;;;6.68;91.07
76108;BME280;64834;52.516;10.528;2022-12-20T08:44:31;100889.19;;;6.76;90.96
76108;BME280;64834;52.516;10.528;2022-12-20T08:46:56;100879.03;;;6.80;91.19
76108;BME280;64834;52.516;10.528;2022-12-20T08:49:22;100884.31;;;6.93;90.93
76108;BME280;64834;52.516;10.528;2022-12-20T08:51:47;100888.72;;;6.94;90.83
76108;BME280;64834;52.516;10.528;2022-12-20T08:54:12;100885.31;;;6.83;90.84
76108;BME280;64834;52.516;10.528;2022-12-20T08:56:38;100893.22;;;6.96;90.71
76108;BME280;64834;52.516;10.528;2022-12-20T08:59:04;100883.88;;;6.98;90.38
76108;BME280;64834;52.516;10.528;2022-12-20T09:01:29;100886.91;;;6.93;90.45
76108;BME280;64834;52.516;10.528;2022-12-20T09:03:57;100883.88;;;6.98;90.29
76108;BME280;64834;52.516;10.528;2022-12-20T09:06:23;100883.88;;;6.98;90.36
76108;BME280;64834;52.516;10.528;2022-12-20T09:08:49;100892.00;;;6.91;90.22
76108;BME280;64834;52.516;10.528;2022-12-20T09:11:19;100883.28;;;7.02;89.91
76108;BME280;64834;52.516;10.528;2022-12-20T09:13:46;100877.75;;;6.98;89.91
76108;BME280;64834;52.516;10.528;2022-12-20T09:16:13;100865.66;;;6.98;89.96
76108;BME280;64834;52.516;10.528;2022-12-20T09:18:39;100868.00;;;7.07;89.79
76108;BME280;64834;52.516;10.528;2022-12-20T09:21:06;100870.47;;;7.17;89.32
76108;BME280;64834;52.516;10.528;2022-12-20T09:23:33;100861.53;;;7.14;88.83
76108;BME280;64834;52.516;10.528;2022-12-20T09:26:04;100859.63;;;7.23;88.66
76108;BME280;64834;52.516;10.528;2022-12-20T09:28:30;100868.09;;;7.20;88.46
76108;BME280;64834;52.516;10.528;2022-12-20T09:31:00;100863.31;;;7.26;88.06
76108;BME280;64834;52.516;10.528;2022-12-20T09:33:27;100862.16;;;7.35;87.46
76108;BME280;64834;52.516;10.528;2022-12-20T09:35:53;100868.94;;;7.44;87.00
76108;BME280;64834;52.516;10.528;2022-12-20T09:38:20;100860.66;;;7.50;86.91
76108;BME280;64834;52.516;10.528;2022-12-20T09:40:52;100869.81;;;7.45;87.01
76108;BME280;64834;52.516;10.528;2022-12-20T09:43:18;100872.34;;;7.43;86.73
76108;BME280;64834;52.516;10.528;2022-12-20T09:45:45;100871.44;;;7.43;86.67
76108;BME280;64834;52.516;10.528;2022-12-20T09:48:22;100875.47;;;7.51;86.67
76108;BME280;64834;52.516;10.528;2022-12-20T09:51:02;100880.56;;;7.49;86.46
76108;BME280;64834;52.516;10.528;2022-12-20T09:59:04;100834.66;;;7.63;86.13
76108;BME280;64834;52.516;10.528;2022-12-20T10:01:32;100842.66;;;7.66;85.83
76108;BME280;64834;52.516;10.528;2022-12-20T10:07:13;100839.75;;;7.87;84.75
76108;BME280;64834;52.516;10.528;2022-12-20T10:12:49;100842.94;;;7.82;85.01
76108;BME280;64834;52.516;10.528;2022-12-20T10:15:35;100843.41;;;7.77;85.04
76108;BME280;64834;52.516;10.528;2022-12-20T10:25:33;100827.59;;;8.12;83.55
76108;BME280;64834;52.516;10.528;2022-12-20T10:28:10;100833.81;;;8.14;83.61
76108;BME280;64834;52.516;10.528;2022-12-20T10:30:36;100815.78;;;8.17;82.81
76108;BME280;64834;52.516;10.528;2022-12-20T10:33:01;100814.06;;;8.18;83.46
76108;BME280;64834;52.516;10.528;2022-12-20T10:38:04;100805.22;;;8.29;82.27
76108;BME280;64834;52.516;10.528;2022-12-20T10:40:42;100806.25;;;8.31;82.94
76108;BME280;64834;52.516;10.528;2022-12-20T10:43:18;100798.44;;;8.31;83.17
76108;BME280;64834;52.516;10.528;2022-12-20T10:45:57;100799.34;;;8.31;82.86
76108;BME280;64834;52.516;10.528;2022-12-20T10:48:36;100797.81;;;8.35;83.02
76108;BME280;64834;52.516;10.528;2022-12-20T10:53:59;100792.22;;;8.42;82.50
76108;BME280;64834;52.516;10.528;2022-12-20T10:56:32;100791.75;;;8.48;82.22
76108;BME280;64834;52.516;10.528;2022-12-20T10:59:01;100789.75;;;8.44;82.40
76108;BME280;64834;52.516;10.528;2022-12-20T11:01:30;100766.19;;;8.55;81.72
76108;BME280;64834;52.516;10.528;2022-12-20T11:03:58;100765.16;;;8.53;81.44
76108;BME280;64834;52.516;10.528;2022-12-20T11:06:39;100762.75;;;8.56;81.54
76108;BME280;64834;52.516;10.528;2022-12-20T11:09:25;100759.03;;;8.66;80.90
76108;BME280;64834;52.516;10.528;2022-12-20T11:14:28;100767.56;;;8.63;81.43
76108;BME280;64834;52.516;10.528;2022-12-20T11:16:55;100764.53;;;8.71;81.18
76108;BME280;64834;52.516;10.528;2022-12-20T11:19:29;100764.75;;;8.74;81.49
76108;BME280;64834;52.516;10.528;2022-12-20T11:24:48;100757.78;;;8.87;80.87
76108;BME280;64834;52.516;10.528;2022-12-20T11:27:40;100753.13;;;8.97;80.87
76108;BME280;64834;52.516;10.528;2022-12-20T11:30:44;100743.22;;;8.91;80.54
76108;BME280;64834;52.516;10.528;2022-12-20T11:33:35;100741.50;;;8.91;80.74
76108;BME280;64834;52.516;10.528;2022-12-20T11:36:11;100745.41;;;8.98;80.24
76108;BME280;64834;52.516;10.528;2022-12-20T11:38:43;100744.19;;;9.06;80.63
76108;BME280;64834;52.516;10.528;2022-12-20T11:41:20;100738.28;;;8.96;81.34
76108;BME280;64834;52.516;10.528;2022-12-20T11:44:26;100725.66;;;9.16;79.55
76108;BME280;64834;52.516;10.528;2022-12-20T11:53:07;100725.28;;;9.10;80.16
76108;BME280;64834;52.516;10.528;2022-12-20T11:55:36;100729.34;;;9.05;80.57
76108;BME280;64834;52.516;10.528;2022-12-20T11:58:17;100720.81;;;9.23;79.22
76108;BME280;64834;52.516;10.528;2022-12-20T12:00:56;100714.97;;;9.27;78.85
76108;BME280;64834;52.516;10.528;2022-12-20T12:03:33;100713.19;;;9.26;79.24
76108;BME280;64834;52.516;10.528;2022-12-20T12:06:16;100715.16;;;9.30;78.91
76108;BME280;64834;52.516;10.528;2022-12-20T12:08:52;100711.56;;;9.28;79.33
76108;BME280;64834;52.516;10.528;2022-12-20T12:11:24;100711.63;;;9.29;79.24
76108;BME280;64834;52.516;10.528;2022-12-20T12:13:51;100704.06;;;9.19;79.75
76108;BME280;64834;52.516;10.528;2022-12-20T12:16:26;100701.19;;;9.29;79.00
76108;BME280;64834;52.516;10.528;2022-12-20T12:18:57;100694.53;;;9.19;79.97
76108;BME280;64834;52.516;10.528;2022-12-20T12:22:06;100696.50;;;9.24;79.13
76108;BME280;64834;52.516;10.528;2022-12-20T12:24:20;100694.91;;;9.26;78.81
76108;BME280;64834;52.516;10.528;2022-12-20T12:26:47;100702.81;;;9.27;79.23
76108;BME280;64834;52.516;10.528;2022-12-20T12:29:15;100695.28;;;9.32;78.65
76108;BME280;64834;52.516;10.528;2022-12-20T12:32:20;100701.47;;;9.34;79.06
76108;BME280;64834;52.516;10.528;2022-12-20T12:35:10;100696.78;;;9.28;79.16
76108;BME280;64834;52.516;10.528;2022-12-20T12:38:45;100699.03;;;9.22;79.65
76108;BME280;64834;52.516;10.528;2022-12-20T12:41:05;100705.63;;;9.30;79.02
76108;BME280;64834;52.516;10.528;2022-12-20T12:43:47;100693.28;;;9.28;79.00
76108;BME280;64834;52.516;10.528;2022-12-20T12:46:26;100687.97;;;9.41;78.22
76108;BME280;64834;52.516;10.528;2022-12-20T12:49:03;100676.19;;;9.33;78.40
76108;BME280;64834;52.516;10.528;2022-12-20T12:51:32;100667.91;;;9.25;78.89
76108;BME280;64834;52.516;10.528;2022-12-20T12:56:38;100683.88;;;9.16;79.18
76108;BME280;64834;52.516;10.528;2022-12-20T13:04:19;100667.16;;;9.13;79.39
76108;BME280;64834;52.516;10.528;2022-12-20T13:11:47;100657.78;;;9.16;79.22
76108;BME280;64834;52.516;10.528;2022-12-20T13:17:37;100653.09;;;9.11;79.98
76108;BME280;64834;52.516;10.528;2022-12-20T13:19:48;100650.00;;;9.03;80.09
76108;BME280;64834;52.516;10.528;2022-12-20T13:22:23;100640.22;;;8.99;80.10
76108;BME280;64834;52.516;10.528;2022-12-20T13:27:28;100643.19;;;9.05;79.65
76108;BME280;64834;52.516;10.528;2022-12-20T13:38:37;100639.88;;;9.08;79.40
76108;BME280;64834;52.516;10.528;2022-12-20T13:43:48;100630.16;;;9.05;79.23
76108;BME280;64834;52.516;10.528;2022-12-20T13:46:30;100633.97;;;8.97;79.64
76108;BME280;64834;52.516;10.528;2022-12-20T13:49:02;100635.31;;;8.90;79.76
76108;BME280;64834;52.516;10.528;2022-12-20T13:51:29;100642.97;;;8.87;79.81
76108;BME280;64834;52.516;10.528;2022-12-20T13:53:56;100630.56;;;8.98;79.33
76108;BME280;64834;52.516;10.528;2022-12-20T13:58:50;100628.84;;;8.99;79.33
76108;BME280;64834;52.516;10.528;2022-12-20T14:01:16;100631.28;;;8.96;79.50
76108;BME280;64834;52.516;10.528;2022-12-20T14:03:44;100633.44;;;8.88;79.76
76108;BME280;64834;52.516;10.528;2022-12-20T14:06:12;100633.91;;;8.96;79.38
76108;BME280;64834;52.516;10.528;2022-12-20T14:08:41;100630.31;;;8.94;79.58
76108;BME280;64834;52.516;10.528;2022-12-20T14:11:13;100620.84;;;8.96;78.97
76108;BME280;64834;52.516;10.528;2022-12-20T14:13:39;100632.09;;;8.95;79.31
76108;BME280;64834;52.516;10.528;2022-12-20T14:16:14;100636.41;;;8.94;79.35
76108;BME280;64834;52.516;10.528;2022-12-20T14:18:40;100631.28;;;8.96;79.06
76108;BME280;64834;52.516;10.528;2022-12-20T14:21:06;100627.19;;;9.14;78.40